sensor_id;sensor_type;location;lat;lon;timestamp;temperature;humidity
75387;DHT22;63966;47.914;22.266;2023-04-15T00:01:49;5.76;96.02
75387;DHT22;63966;47.914;22.266;2023-04-15T00:04:53;5.95;96.14
75387;DHT22;63966;47.914;22.266;2023-04-15T00:07:56;6.00;96.39
75387;DHT22;63966;47.914;22.266;2023-04-15T00:11:01;6.16;96.59
75387;DHT22;63966;47.914;22.266;2023-04-15T00:14:08;6.19;96.58
75387;DHT22;63966;47.914;22.266;2023-04-15T00:17:11;6.23;96.69
75387;DHT22;63966;47.914;22.266;2023-04-15T00:20:15;6.23;96.89
75387;DHT22;63966;47.914;22.266;2023-04-15T00:23:18;6.19;96.95
75387;DHT22;63966;47.914;22.266;2023-04-15T00:26:22;6.09;96.94
75387;DHT22;63966;47.914;22.266;2023-04-15T00:29:25;5.93;96.84
75387;DHT22;63966;47.914;22.266;2023-04-15T00:32:29;5.89;96.74
75387;DHT22;63966;47.914;22.266;2023-04-15T00:35:33;5.38;95.63
75387;DHT22;63966;47.914;22.266;2023-04-15T00:38:37;5.42;96.12
75387;DHT22;63966;47.914;22.266;2023-04-15T00:41:43;5.78;97.06
75387;DHT22;63966;47.914;22.266;2023-04-15T00:44:47;6.06;97.10
75387;DHT22;63966;47.914;22.266;2023-04-15T00:47:52;6.26;95.35
75387;DHT22;63966;47.914;22.266;2023-04-15T00:50:55;6.13;95.38
75387;DHT22;63966;47.914;22.266;2023-04-15T00:53:59;5.83;95.48
75387;DHT22;63966;47.914;22.266;2023-04-15T00:57:05;5.51;95.68
75387;DHT22;63966;47.914;22.266;2023-04-15T01:00:09;5.26;95.72
75387;DHT22;63966;47.914;22.266;2023-04-15T01:03:14;5.24;96.12
75387;DHT22;63966;47.914;22.266;2023-04-15T01:06:18;5.20;96.47
75387;DHT22;63966;47.914;22.266;2023-04-15T01:09:21;5.38;96.97
75387;DHT22;63966;47.914;22.266;2023-04-15T01:12:27;5.54;97.18
75387;DHT22;63966;47.914;22.266;2023-04-15T01:15:32;5.51;97.26
75387;DHT22;63966;47.914;22.266;2023-04-15T01:18:38;5.41;97.34
75387;DHT22;63966;47.914;22.266;2023-04-15T01:21:42;5.55;97.45
75387;DHT22;63966;47.914;22.266;2023-04-15T01:25:10;5.38;97.28
75387;DHT22;63966;47.914;22.266;2023-04-15T01:28:14;5.21;97.22
75387;DHT22;63966;47.914;22.266;2023-04-15T01:31:18;5.21;97.28
75387;DHT22;63966;47.914;22.266;2023-04-15T01:34:21;5.31;97.49
75387;DHT22;63966;47.914;22.266;2023-04-15T01:37:29;5.54;97.70
75387;DHT22;63966;47.914;22.266;2023-04-15T01:40:33;5.62;97.83
75387;DHT22;63966;47.914;22.266;2023-04-15T01:43:37;5.58;98.03
75387;DHT22;63966;47.914;22.266;2023-04-15T01:46:41;5.59;98.09
75387;DHT22;63966;47.914;22.266;2023-04-15T01:49:44;5.61;98.18
75387;DHT22;63966;47.914;22.266;2023-04-15T01:52:48;5.55;98.02
75387;DHT22;63966;47.914;22.266;2023-04-15T01:55:53;5.56;97.80
75387;DHT22;63966;47.914;22.266;2023-04-15T01:58:57;5.79;97.81
75387;DHT22;63966;47.914;22.266;2023-04-15T02:02:02;6.05;97.84
75387;DHT22;63966;47.914;22.266;2023-04-15T02:05:06;6.29;97.86
75387;DHT22;63966;47.914;22.266;2023-04-15T02:08:12;6.33;97.84
75387;DHT22;63966;47.914;22.266;2023-04-15T02:11:15;6.42;97.58
75387;DHT22;63966;47.914;22.266;2023-04-15T02:14:19;6.51;97.42
75387;DHT22;63966;47.914;22.266;2023-04-15T02:17:22;6.65;97.12
75387;DHT22;63966;47.914;22.266;2023-04-15T02:20:26;6.71;96.83
75387;DHT22;63966;47.914;22.266;2023-04-15T02:23:29;6.74;96.75
75387;DHT22;63966;47.914;22.266;2023-04-15T02:26:33;6.78;96.30
75387;DHT22;63966;47.914;22.266;2023-04-15T02:29:36;6.84;96.09
75387;DHT22;63966;47.914;22.266;2023-04-15T02:32:40;6.85;96.02
75387;DHT22;63966;47.914;22.266;2023-04-15T02:35:47;6.88;95.62
75387;DHT22;63966;47.914;22.266;2023-04-15T02:38:51;6.92;95.28
75387;DHT22;63966;47.914;22.266;2023-04-15T02:41:54;6.88;95.06
75387;DHT22;63966;47.914;22.266;2023-04-15T02:44:58;6.86;94.71
75387;DHT22;63966;47.914;22.266;2023-04-15T02:48:06;6.95;94.76
75387;DHT22;63966;47.914;22.266;2023-04-15T02:51:16;6.96;94.70
75387;DHT22;63966;47.914;22.266;2023-04-15T02:54:22;6.95;94.50
75387;DHT22;63966;47.914;22.266;2023-04-15T02:57:26;6.95;94.74
75387;DHT22;63966;47.914;22.266;2023-04-15T03:00:38;7.07;95.10
75387;DHT22;63966;47.914;22.266;2023-04-15T03:03:42;7.00;94.77
75387;DHT22;63966;47.914;22.266;2023-04-15T03:06:46;6.96;94.80
75387;DHT22;63966;47.914;22.266;2023-04-15T03:09:49;7.02;94.86
75387;DHT22;63966;47.914;22.266;2023-04-15T03:12:53;7.10;94.81
75387;DHT22;63966;47.914;22.266;2023-04-15T03:15:58;7.13;94.52
75387;DHT22;63966;47.914;22.266;2023-04-15T03:19:02;7.13;94.54
75387;DHT22;63966;47.914;22.266;2023-04-15T03:22:07;7.20;94.65
75387;DHT22;63966;47.914;22.266;2023-04-15T03:25:11;7.24;94.37
75387;DHT22;63966;47.914;22.266;2023-04-15T03:28:14;7.27;94.10
75387;DHT22;63966;47.914;22.266;2023-04-15T03:31:18;7.28;93.90
75387;DHT22;63966;47.914;22.266;2023-04-15T03:34:21;7.28;93.97
75387;DHT22;63966;47.914;22.266;2023-04-15T03:37:25;7.31;94.04
75387;DHT22;63966;47.914;22.266;2023-04-15T03:40:28;7.34;94.02
75387;DHT22;63966;47.914;22.266;2023-04-15T03:43:32;7.33;93.84
75387;DHT22;63966;47.914;22.266;2023-04-15T03:46:35;7.31;93.76
75387;DHT22;63966;47.914;22.266;2023-04-15T03:49:39;7.40;93.72
75387;DHT22;63966;47.914;22.266;2023-04-15T03:52:43;7.44;93.43
75387;DHT22;63966;47.914;22.266;2023-04-15T03:55:46;7.46;93.35
75387;DHT22;63966;47.914;22.266;2023-04-15T03:58:50;7.50;93.48
75387;DHT22;63966;47.914;22.266;2023-04-15T04:01:53;7.60;93.58
75387;DHT22;63966;47.914;22.266;2023-04-15T04:04:57;7.63;93.27
75387;DHT22;63966;47.914;22.266;2023-04-15T04:08:00;7.67;93.08
75387;DHT22;63966;47.914;22.266;2023-04-15T04:11:04;7.77;93.20
75387;DHT22;63966;47.914;22.266;2023-04-15T04:14:07;8.01;91.47
75387;DHT22;63966;47.914;22.266;2023-04-15T04:17:11;7.99;91.42
75387;DHT22;63966;47.914;22.266;2023-04-15T04:20:14;8.01;90.94
75387;DHT22;63966;47.914;22.266;2023-04-15T04:23:18;7.81;91.74
75387;DHT22;63966;47.914;22.266;2023-04-15T04:26:21;7.65;92.44
75387;DHT22;63966;47.914;22.266;2023-04-15T04:29:25;7.67;92.45
75387;DHT22;63966;47.914;22.266;2023-04-15T04:32:29;7.44;92.61
75387;DHT22;63966;47.914;22.266;2023-04-15T04:35:32;7.38;92.82
75387;DHT22;63966;47.914;22.266;2023-04-15T04:38:37;7.38;93.12
75387;DHT22;63966;47.914;22.266;2023-04-15T04:41:40;7.46;93.13
75387;DHT22;63966;47.914;22.266;2023-04-15T04:44:44;7.75;92.68
75387;DHT22;63966;47.914;22.266;2023-04-15T04:47:47;8.05;91.56
75387;DHT22;63966;47.914;22.266;2023-04-15T04:50:51;8.49;90.46
75387;DHT22;63966;47.914;22.266;2023-04-15T04:53:54;9.61;87.94
75387;DHT22;63966;47.914;22.266;2023-04-15T04:56:58;10.67;84.01
75387;DHT22;63966;47.914;22.266;2023-04-15T05:00:03;10.14;83.54
75387;DHT22;63966;47.914;22.266;2023-04-15T05:03:08;9.61;84.99
75387;DHT22;63966;47.914;22.266;2023-04-15T05:06:11;9.38;86.77
75387;DHT22;63966;47.914;22.266;2023-04-15T05:09:15;9.40;87.08
75387;DHT22;63966;47.914;22.266;2023-04-15T05:12:18;9.38;86.79
75387;DHT22;63966;47.914;22.266;2023-04-15T05:15:22;9.28;87.44
75387;DHT22;63966;47.914;22.266;2023-04-15T05:18:25;9.23;87.93
75387;DHT22;63966;47.914;22.266;2023-04-15T05:21:29;9.32;87.68
75387;DHT22;63966;47.914;22.266;2023-04-15T05:24:33;9.56;86.99
75387;DHT22;63966;47.914;22.266;2023-04-15T05:27:36;9.83;86.24
75387;DHT22;63966;47.914;22.266;2023-04-15T05:30:40;9.98;86.02
75387;DHT22;63966;47.914;22.266;2023-04-15T05:33:43;10.12;84.68
75387;DHT22;63966;47.914;22.266;2023-04-15T05:36:47;10.11;84.68
75387;DHT22;63966;47.914;22.266;2023-04-15T05:39:50;9.90;85.88
75387;DHT22;63966;47.914;22.266;2023-04-15T05:42:54;9.93;86.33
75387;DHT22;63966;47.914;22.266;2023-04-15T05:45:57;10.72;84.61
75387;DHT22;63966;47.914;22.266;2023-04-15T05:49:01;12.44;78.02
75387;DHT22;63966;47.914;22.266;2023-04-15T05:52:05;13.58;73.22
75387;DHT22;63966;47.914;22.266;2023-04-15T05:55:08;13.69;73.94
75387;DHT22;63966;47.914;22.266;2023-04-15T05:58:12;15.19;68.15
75387;DHT22;63966;47.914;22.266;2023-04-15T06:01:15;16.36;64.93
75387;DHT22;63966;47.914;22.266;2023-04-15T06:04:19;17.45;59.39
75387;DHT22;63966;47.914;22.266;2023-04-15T06:07:23;18.31;56.32
75387;DHT22;63966;47.914;22.266;2023-04-15T06:10:27;18.01;56.50
75387;DHT22;63966;47.914;22.266;2023-04-15T06:13:30;17.65;57.58
75387;DHT22;63966;47.914;22.266;2023-04-15T06:16:34;18.57;58.22
75387;DHT22;63966;47.914;22.266;2023-04-15T06:19:39;19.00;53.31
75387;DHT22;63966;47.914;22.266;2023-04-15T06:22:42;17.53;56.57
75387;DHT22;63966;47.914;22.266;2023-04-15T06:25:46;17.27;57.46
75387;DHT22;63966;47.914;22.266;2023-04-15T06:28:49;17.42;60.19
75387;DHT22;63966;47.914;22.266;2023-04-15T06:31:52;17.34;57.51
75387;DHT22;63966;47.914;22.266;2023-04-15T06:34:56;17.38;58.45
75387;DHT22;63966;47.914;22.266;2023-04-15T06:37:59;19.16;54.29
75387;DHT22;63966;47.914;22.266;2023-04-15T06:41:03;20.67;49.93
75387;DHT22;63966;47.914;22.266;2023-04-15T06:44:06;21.12;47.43
75387;DHT22;63966;47.914;22.266;2023-04-15T06:47:10;21.35;46.78
75387;DHT22;63966;47.914;22.266;2023-04-15T06:50:16;22.10;45.24
75387;DHT22;63966;47.914;22.266;2023-04-15T06:53:20;22.12;47.63
75387;DHT22;63966;47.914;22.266;2023-04-15T06:56:24;20.74;46.89
75387;DHT22;63966;47.914;22.266;2023-04-15T06:59:27;20.49;49.20
75387;DHT22;63966;47.914;22.266;2023-04-15T07:02:31;22.18;46.62
75387;DHT22;63966;47.914;22.266;2023-04-15T07:05:35;22.52;45.81
75387;DHT22;63966;47.914;22.266;2023-04-15T07:08:39;21.91;47.16
75387;DHT22;63966;47.914;22.266;2023-04-15T07:11:42;21.43;48.37
75387;DHT22;63966;47.914;22.266;2023-04-15T07:14:46;20.51;49.28
75387;DHT22;63966;47.914;22.266;2023-04-15T07:17:49;19.00;52.14
75387;DHT22;63966;47.914;22.266;2023-04-15T07:20:53;19.09;52.84
75387;DHT22;63966;47.914;22.266;2023-04-15T07:23:57;19.47;51.36
75387;DHT22;63966;47.914;22.266;2023-04-15T07:27:01;20.40;48.18
75387;DHT22;63966;47.914;22.266;2023-04-15T07:30:05;18.30;53.18
75387;DHT22;63966;47.914;22.266;2023-04-15T07:33:08;18.62;53.65
75387;DHT22;63966;47.914;22.266;2023-04-15T07:36:12;18.88;53.55
75387;DHT22;63966;47.914;22.266;2023-04-15T07:39:16;18.06;55.83
75387;DHT22;63966;47.914;22.266;2023-04-15T07:42:20;17.65;57.67
75387;DHT22;63966;47.914;22.266;2023-04-15T07:45:24;17.14;56.62
75387;DHT22;63966;47.914;22.266;2023-04-15T07:48:28;18.41;54.21
75387;DHT22;63966;47.914;22.266;2023-04-15T07:51:31;21.26;46.58
75387;DHT22;63966;47.914;22.266;2023-04-15T07:54:34;23.00;42.45
75387;DHT22;63966;47.914;22.266;2023-04-15T07:57:38;23.75;39.34
75387;DHT22;63966;47.914;22.266;2023-04-15T08:00:42;24.68;38.22
75387;DHT22;63966;47.914;22.266;2023-04-15T08:03:45;22.68;41.18
75387;DHT22;63966;47.914;22.266;2023-04-15T08:06:49;20.64;46.59
75387;DHT22;63966;47.914;22.266;2023-04-15T08:09:53;21.62;45.03
75387;DHT22;63966;47.914;22.266;2023-04-15T08:12:56;19.99;48.68
75387;DHT22;63966;47.914;22.266;2023-04-15T08:16:22;17.68;53.54
75387;DHT22;63966;47.914;22.266;2023-04-15T08:19:27;16.70;56.71
75387;DHT22;63966;47.914;22.266;2023-04-15T08:22:30;16.52;59.30
75387;DHT22;63966;47.914;22.266;2023-04-15T08:25:34;18.18;53.95
75387;DHT22;63966;47.914;22.266;2023-04-15T08:28:39;18.10;53.93
75387;DHT22;63966;47.914;22.266;2023-04-15T08:31:43;17.32;55.94
75387;DHT22;63966;47.914;22.266;2023-04-15T08:34:47;17.76;54.06
75387;DHT22;63966;47.914;22.266;2023-04-15T08:37:50;18.76;51.62
75387;DHT22;63966;47.914;22.266;2023-04-15T08:40:55;18.24;49.45
75387;DHT22;63966;47.914;22.266;2023-04-15T08:44:04;16.97;51.65
75387;DHT22;63966;47.914;22.266;2023-04-15T08:47:08;16.44;55.71
75387;DHT22;63966;47.914;22.266;2023-04-15T08:50:15;15.84;57.27
75387;DHT22;63966;47.914;22.266;2023-04-15T08:53:20;17.24;59.24
75387;DHT22;63966;47.914;22.266;2023-04-15T08:56:25;17.17;53.16
75387;DHT22;63966;47.914;22.266;2023-04-15T08:59:32;16.69;54.65
75387;DHT22;63966;47.914;22.266;2023-04-15T09:02:35;16.99;53.04
75387;DHT22;63966;47.914;22.266;2023-04-15T09:05:39;17.61;51.02
75387;DHT22;63966;47.914;22.266;2023-04-15T09:08:43;17.92;48.90
75387;DHT22;63966;47.914;22.266;2023-04-15T09:11:47;17.58;48.55
75387;DHT22;63966;47.914;22.266;2023-04-15T09:14:52;17.99;49.71
75387;DHT22;63966;47.914;22.266;2023-04-15T09:17:56;17.82;49.69
75387;DHT22;63966;47.914;22.266;2023-04-15T09:21:12;17.15;51.63
75387;DHT22;63966;47.914;22.266;2023-04-15T09:24:16;17.32;49.28
75387;DHT22;63966;47.914;22.266;2023-04-15T09:27:20;16.73;52.52
75387;DHT22;63966;47.914;22.266;2023-04-15T09:30:24;16.79;52.62
75387;DHT22;63966;47.914;22.266;2023-04-15T09:33:29;17.32;51.05
75387;DHT22;63966;47.914;22.266;2023-04-15T09:39:54;16.44;52.41
75387;DHT22;63966;47.914;22.266;2023-04-15T09:42:57;15.98;53.86
75387;DHT22;63966;47.914;22.266;2023-04-15T09:46:01;16.28;53.55
75387;DHT22;63966;47.914;22.266;2023-04-15T09:49:11;16.36;53.65
75387;DHT22;63966;47.914;22.266;2023-04-15T09:52:16;16.56;53.22
75387;DHT22;63966;47.914;22.266;2023-04-15T09:55:19;17.34;51.43
75387;DHT22;63966;47.914;22.266;2023-04-15T09:58:27;18.09;50.61
75387;DHT22;63966;47.914;22.266;2023-04-15T10:01:31;17.87;49.90
75387;DHT22;63966;47.914;22.266;2023-04-15T10:04:40;17.63;48.44
75387;DHT22;63966;47.914;22.266;2023-04-15T10:07:44;17.79;49.76
75387;DHT22;63966;47.914;22.266;2023-04-15T10:10:48;17.58;49.27
75387;DHT22;63966;47.914;22.266;2023-04-15T10:13:52;17.14;49.14
75387;DHT22;63966;47.914;22.266;2023-04-15T10:17:03;16.65;48.92
75387;DHT22;63966;47.914;22.266;2023-04-15T10:20:08;16.63;50.97
75387;DHT22;63966;47.914;22.266;2023-04-15T10:23:13;17.18;48.41
75387;DHT22;63966;47.914;22.266;2023-04-15T10:26:17;17.13;46.52
75387;DHT22;63966;47.914;22.266;2023-04-15T10:29:21;16.63;48.53
75387;DHT22;63966;47.914;22.266;2023-04-15T10:32:25;16.04;50.37
75387;DHT22;63966;47.914;22.266;2023-04-15T10:35:30;16.05;50.56
75387;DHT22;63966;47.914;22.266;2023-04-15T10:38:43;16.81;48.39
75387;DHT22;63966;47.914;22.266;2023-04-15T10:45:16;16.83;48.48
75387;DHT22;63966;47.914;22.266;2023-04-15T10:48:20;16.39;46.68
75387;DHT22;63966;47.914;22.266;2023-04-15T10:51:31;16.26;46.62
75387;DHT22;63966;47.914;22.266;2023-04-15T10:54:34;16.30;47.66
75387;DHT22;63966;47.914;22.266;2023-04-15T10:57:41;16.08;47.38
75387;DHT22;63966;47.914;22.266;2023-04-15T11:00:50;15.97;47.83
75387;DHT22;63966;47.914;22.266;2023-04-15T11:04:00;16.41;49.60
75387;DHT22;63966;47.914;22.266;2023-04-15T11:07:06;16.51;48.65
75387;DHT22;63966;47.914;22.266;2023-04-15T11:13:27;16.73;48.82
75387;DHT22;63966;47.914;22.266;2023-04-15T11:16:31;16.38;46.24
75387;DHT22;63966;47.914;22.266;2023-04-15T11:19:44;16.09;48.40
75387;DHT22;63966;47.914;22.266;2023-04-15T11:22:49;15.96;49.16
75387;DHT22;63966;47.914;22.266;2023-04-15T11:25:55;15.96;49.80
75387;DHT22;63966;47.914;22.266;2023-04-15T11:29:02;16.45;47.89
75387;DHT22;63966;47.914;22.266;2023-04-15T11:32:09;17.21;48.30
75387;DHT22;63966;47.914;22.266;2023-04-15T11:35:12;17.08;45.55
75387;DHT22;63966;47.914;22.266;2023-04-15T11:38:16;16.44;47.04
75387;DHT22;63966;47.914;22.266;2023-04-15T11:41:20;16.45;48.08
75387;DHT22;63966;47.914;22.266;2023-04-15T11:44:24;16.91;49.04
75387;DHT22;63966;47.914;22.266;2023-04-15T11:47:28;17.83;49.56
75387;DHT22;63966;47.914;22.266;2023-04-15T11:50:32;18.27;45.70
75387;DHT22;63966;47.914;22.266;2023-04-15T11:53:43;18.37;46.52
75387;DHT22;63966;47.914;22.266;2023-04-15T11:56:51;18.21;44.32
75387;DHT22;63966;47.914;22.266;2023-04-15T11:59:55;17.99;45.65
75387;DHT22;63966;47.914;22.266;2023-04-15T12:03:38;17.41;43.08
75387;DHT22;63966;47.914;22.266;2023-04-15T12:06:41;17.59;44.96
75387;DHT22;63966;47.914;22.266;2023-04-15T12:09:54;17.61;42.01
75387;DHT22;63966;47.914;22.266;2023-04-15T12:12:58;17.58;42.93
75387;DHT22;63966;47.914;22.266;2023-04-15T12:16:03;17.25;42.17
75387;DHT22;63966;47.914;22.266;2023-04-15T12:19:12;17.10;43.05
75387;DHT22;63966;47.914;22.266;2023-04-15T12:22:16;17.02;43.21
75387;DHT22;63966;47.914;22.266;2023-04-15T12:25:35;17.23;42.89
75387;DHT22;63966;47.914;22.266;2023-04-15T12:28:40;17.03;44.70
75387;DHT22;63966;47.914;22.266;2023-04-15T12:31:53;17.02;45.27
75387;DHT22;63966;47.914;22.266;2023-04-15T12:34:56;17.11;46.32
75387;DHT22;63966;47.914;22.266;2023-04-15T12:38:00;17.23;44.14
75387;DHT22;63966;47.914;22.266;2023-04-15T12:41:04;17.35;45.42
75387;DHT22;63966;47.914;22.266;2023-04-15T12:44:07;17.71;44.46
75387;DHT22;63966;47.914;22.266;2023-04-15T12:47:11;17.71;41.90
75387;DHT22;63966;47.914;22.266;2023-04-15T12:50:15;17.99;41.12
75387;DHT22;63966;47.914;22.266;2023-04-15T12:53:20;17.90;40.09
75387;DHT22;63966;47.914;22.266;2023-04-15T12:56:23;18.13;41.43
75387;DHT22;63966;47.914;22.266;2023-04-15T12:59:27;18.38;41.29
75387;DHT22;63966;47.914;22.266;2023-04-15T13:02:31;18.11;41.53
75387;DHT22;63966;47.914;22.266;2023-04-15T13:05:35;17.82;39.86
75387;DHT22;63966;47.914;22.266;2023-04-15T13:08:39;17.96;41.75
75387;DHT22;63966;47.914;22.266;2023-04-15T13:11:53;17.69;41.04
75387;DHT22;63966;47.914;22.266;2023-04-15T13:14:58;17.75;41.06
75387;DHT22;63966;47.914;22.266;2023-04-15T13:18:01;17.72;41.81
75387;DHT22;63966;47.914;22.266;2023-04-15T13:21:05;17.32;43.09
75387;DHT22;63966;47.914;22.266;2023-04-15T13:24:09;17.17;43.48
75387;DHT22;63966;47.914;22.266;2023-04-15T13:27:13;17.20;45.26
75387;DHT22;63966;47.914;22.266;2023-04-15T13:30:16;17.41;45.31
75387;DHT22;63966;47.914;22.266;2023-04-15T13:33:20;17.49;43.47
75387;DHT22;63966;47.914;22.266;2023-04-15T13:36:24;17.39;42.92
75387;DHT22;63966;47.914;22.266;2023-04-15T13:39:28;16.86;43.09
75387;DHT22;63966;47.914;22.266;2023-04-15T13:42:32;16.86;45.05
75387;DHT22;63966;47.914;22.266;2023-04-15T13:45:35;16.93;46.73
75387;DHT22;63966;47.914;22.266;2023-04-15T13:48:39;16.84;43.63
75387;DHT22;63966;47.914;22.266;2023-04-15T13:51:42;17.06;42.52
75387;DHT22;63966;47.914;22.266;2023-04-15T13:54:46;17.20;43.37
75387;DHT22;63966;47.914;22.266;2023-04-15T13:58:10;17.28;42.01
75387;DHT22;63966;47.914;22.266;2023-04-15T14:01:14;17.30;43.02
75387;DHT22;63966;47.914;22.266;2023-04-15T14:04:18;16.94;42.79
75387;DHT22;63966;47.914;22.266;2023-04-15T14:07:22;16.84;42.83
75387;DHT22;63966;47.914;22.266;2023-04-15T14:10:26;16.94;43.10
75387;DHT22;63966;47.914;22.266;2023-04-15T14:13:30;17.27;40.77
75387;DHT22;63966;47.914;22.266;2023-04-15T14:16:34;17.38;39.72
75387;DHT22;63966;47.914;22.266;2023-04-15T14:19:37;17.36;40.60
75387;DHT22;63966;47.914;22.266;2023-04-15T14:22:41;17.25;40.85
75387;DHT22;63966;47.914;22.266;2023-04-15T14:25:45;17.00;40.45
75387;DHT22;63966;47.914;22.266;2023-04-15T14:28:50;16.83;42.04
75387;DHT22;63966;47.914;22.266;2023-04-15T14:31:54;16.79;41.20
75387;DHT22;63966;47.914;22.266;2023-04-15T14:35:14;16.48;40.03
75387;DHT22;63966;47.914;22.266;2023-04-15T14:38:18;16.19;42.78
75387;DHT22;63966;47.914;22.266;2023-04-15T14:41:21;15.91;43.07
75387;DHT22;63966;47.914;22.266;2023-04-15T14:44:25;15.87;43.90
75387;DHT22;63966;47.914;22.266;2023-04-15T14:47:29;15.87;45.14
75387;DHT22;63966;47.914;22.266;2023-04-15T14:50:33;15.87;46.32
75387;DHT22;63966;47.914;22.266;2023-04-15T14:53:37;16.01;47.13
75387;DHT22;63966;47.914;22.266;2023-04-15T14:56:40;16.19;45.64
75387;DHT22;63966;47.914;22.266;2023-04-15T14:59:44;16.30;44.49
75387;DHT22;63966;47.914;22.266;2023-04-15T15:02:47;16.17;45.10
75387;DHT22;63966;47.914;22.266;2023-04-15T15:05:51;15.98;45.39
75387;DHT22;63966;47.914;22.266;2023-04-15T15:08:55;15.96;44.98
75387;DHT22;63966;47.914;22.266;2023-04-15T15:11:58;15.97;44.93
75387;DHT22;63966;47.914;22.266;2023-04-15T15:15:03;15.89;44.97
75387;DHT22;63966;47.914;22.266;2023-04-15T15:18:18;15.87;45.34
75387;DHT22;63966;47.914;22.266;2023-04-15T15:21:21;15.83;47.47
75387;DHT22;63966;47.914;22.266;2023-04-15T15:24:26;15.84;45.97
75387;DHT22;63966;47.914;22.266;2023-04-15T15:27:29;15.67;46.74
75387;DHT22;63966;47.914;22.266;2023-04-15T15:30:33;15.56;47.78
75387;DHT22;63966;47.914;22.266;2023-04-15T15:33:36;15.64;49.07
75387;DHT22;63966;47.914;22.266;2023-04-15T15:36:40;15.70;47.92
75387;DHT22;63966;47.914;22.266;2023-04-15T15:39:43;15.71;49.54
75387;DHT22;63966;47.914;22.266;2023-04-15T15:42:47;15.61;48.35
75387;DHT22;63966;47.914;22.266;2023-04-15T15:45:53;15.42;48.75
75387;DHT22;63966;47.914;22.266;2023-04-15T15:48:58;15.29;49.53
75387;DHT22;63966;47.914;22.266;2023-04-15T15:52:01;14.91;53.55
75387;DHT22;63966;47.914;22.266;2023-04-15T15:55:05;14.46;55.85
75387;DHT22;63966;47.914;22.266;2023-04-15T15:58:09;14.10;58.13
75387;DHT22;63966;47.914;22.266;2023-04-15T16:01:12;13.69;60.26
75387;DHT22;63966;47.914;22.266;2023-04-15T16:04:16;13.54;60.48
75387;DHT22;63966;47.914;22.266;2023-04-15T16:07:20;13.39;61.64
75387;DHT22;63966;47.914;22.266;2023-04-15T16:10:23;13.27;61.75
75387;DHT22;63966;47.914;22.266;2023-04-15T16:13:27;13.13;62.40
75387;DHT22;63966;47.914;22.266;2023-04-15T16:16:31;13.02;62.35
75387;DHT22;63966;47.914;22.266;2023-04-15T16:19:34;12.86;63.19
75387;DHT22;63966;47.914;22.266;2023-04-15T16:22:38;12.72;62.82
75387;DHT22;63966;47.914;22.266;2023-04-15T16:25:43;12.58;62.95
75387;DHT22;63966;47.914;22.266;2023-04-15T16:28:46;12.54;63.14
75387;DHT22;63966;47.914;22.266;2023-04-15T16:31:50;12.48;63.55
75387;DHT22;63966;47.914;22.266;2023-04-15T16:34:54;12.37;64.12
75387;DHT22;63966;47.914;22.266;2023-04-15T16:37:57;12.28;64.82
75387;DHT22;63966;47.914;22.266;2023-04-15T16:41:01;12.25;65.00
75387;DHT22;63966;47.914;22.266;2023-04-15T16:44:05;12.28;64.69
75387;DHT22;63966;47.914;22.266;2023-04-15T16:47:10;12.30;64.89
75387;DHT22;63966;47.914;22.266;2023-04-15T16:50:14;12.24;65.09
75387;DHT22;63966;47.914;22.266;2023-04-15T16:53:18;12.17;65.51
75387;DHT22;63966;47.914;22.266;2023-04-15T16:56:22;12.10;66.25
75387;DHT22;63966;47.914;22.266;2023-04-15T16:59:25;12.01;66.84
75387;DHT22;63966;47.914;22.266;2023-04-15T17:02:29;11.93;67.06
75387;DHT22;63966;47.914;22.266;2023-04-15T17:05:33;11.83;67.18
75387;DHT22;63966;47.914;22.266;2023-04-15T17:08:37;11.76;67.68
75387;DHT22;63966;47.914;22.266;2023-04-15T17:11:41;11.61;68.08
75387;DHT22;63966;47.914;22.266;2023-04-15T17:14:46;11.49;68.80
75387;DHT22;63966;47.914;22.266;2023-04-15T17:17:50;11.36;69.17
75387;DHT22;63966;47.914;22.266;2023-04-15T17:20:55;11.25;68.91
75387;DHT22;63966;47.914;22.266;2023-04-15T17:23:58;11.12;69.19
75387;DHT22;63966;47.914;22.266;2023-04-15T17:27:02;11.04;69.80
75387;DHT22;63966;47.914;22.266;2023-04-15T17:30:07;10.91;69.94
75387;DHT22;63966;47.914;22.266;2023-04-15T17:33:10;10.72;70.32
75387;DHT22;63966;47.914;22.266;2023-04-15T17:36:34;10.70;70.34
75387;DHT22;63966;47.914;22.266;2023-04-15T17:39:37;10.70;70.91
75387;DHT22;63966;47.914;22.266;2023-04-15T17:42:41;10.73;70.68
75387;DHT22;63966;47.914;22.266;2023-04-15T17:45:45;10.72;70.49
75387;DHT22;63966;47.914;22.266;2023-04-15T17:48:49;10.64;70.85
75387;DHT22;63966;47.914;22.266;2023-04-15T17:51:53;10.69;70.40
75387;DHT22;63966;47.914;22.266;2023-04-15T17:54:57;10.63;70.57
75387;DHT22;63966;47.914;22.266;2023-04-15T17:58:01;10.50;71.39
75387;DHT22;63966;47.914;22.266;2023-04-15T18:01:05;10.36;72.15
75387;DHT22;63966;47.914;22.266;2023-04-15T18:04:09;10.31;72.50
75387;DHT22;63966;47.914;22.266;2023-04-15T18:07:14;10.22;72.75
75387;DHT22;63966;47.914;22.266;2023-04-15T18:10:17;10.08;73.19
75387;DHT22;63966;47.914;22.266;2023-04-15T18:13:22;10.18;73.47
75387;DHT22;63966;47.914;22.266;2023-04-15T18:16:26;10.05;73.62
75387;DHT22;63966;47.914;22.266;2023-04-15T18:19:30;10.02;73.95
75387;DHT22;63966;47.914;22.266;2023-04-15T18:22:34;9.99;74.04
75387;DHT22;63966;47.914;22.266;2023-04-15T18:25:38;9.99;74.01
75387;DHT22;63966;47.914;22.266;2023-04-15T18:28:45;9.94;74.08
75387;DHT22;63966;47.914;22.266;2023-04-15T18:31:50;9.86;74.39
75387;DHT22;63966;47.914;22.266;2023-04-15T18:34:55;9.86;74.50
75387;DHT22;63966;47.914;22.266;2023-04-15T18:37:58;9.78;74.77
75387;DHT22;63966;47.914;22.266;2023-04-15T18:41:02;9.87;74.65
75387;DHT22;63966;47.914;22.266;2023-04-15T18:44:08;9.77;75.33
75387;DHT22;63966;47.914;22.266;2023-04-15T18:47:11;9.76;75.72
75387;DHT22;63966;47.914;22.266;2023-04-15T18:50:15;9.77;75.85
75387;DHT22;63966;47.914;22.266;2023-04-15T18:53:20;9.73;76.02
75387;DHT22;63966;47.914;22.266;2023-04-15T18:56:23;9.78;76.00
75387;DHT22;63966;47.914;22.266;2023-04-15T18:59:27;9.77;76.05
75387;DHT22;63966;47.914;22.266;2023-04-15T19:02:33;9.74;76.18
75387;DHT22;63966;47.914;22.266;2023-04-15T19:05:36;9.73;76.34
75387;DHT22;63966;47.914;22.266;2023-04-15T19:08:40;9.71;76.42
75387;DHT22;63966;47.914;22.266;2023-04-15T19:11:44;9.67;76.94
75387;DHT22;63966;47.914;22.266;2023-04-15T19:14:47;9.61;77.34
75387;DHT22;63966;47.914;22.266;2023-04-15T19:17:51;9.56;77.85
75387;DHT22;63966;47.914;22.266;2023-04-15T19:20:55;9.51;78.06
75387;DHT22;63966;47.914;22.266;2023-04-15T19:23:59;9.42;78.61